sensor_id;sensor_type;location;lat;lon;timestamp;temperature;humidity
23609;DHT22;11982;50.810;4.442;2024-02-16T00:01:18;13.50;99.90
23609;DHT22;11982;50.810;4.442;2024-02-16T00:07:06;13.50;99.90
23609;DHT22;11982;50.810;4.442;2024-02-16T00:09:31;13.40;99.90
23609;DHT22;11982;50.810;4.442;2024-02-16T00:11:58;13.40;99.90
23609;DHT22;11982;50.810;4.442;2024-02-16T00:14:24;13.40;99.90
23609;DHT22;11982;50.810;4.442;2024-02-16T00:16:49;13.40;99.90
23609;DHT22;11982;50.810;4.442;2024-02-16T00:22:37;13.50;99.90
23609;DHT22;11982;50.810;4.442;2024-02-16T00:25:03;13.50;99.90
23609;DHT22;11982;50.810;4.442;2024-02-16T00:27:29;13.40;99.90
23609;DHT22;11982;50.810;4.442;2024-02-16T00:29:55;13.50;99.90
23609;DHT22;11982;50.810;4.442;2024-02-16T00:32:20;13.40;99.90
23609;DHT22;11982;50.810;4.442;2024-02-16T00:34:48;13.50;99.90
23609;DHT22;11982;50.810;4.442;2024-02-16T00:37:17;13.50;99.90
23609;DHT22;11982;50.810;4.442;2024-02-16T00:39:43;13.50;99.90
23609;DHT22;11982;50.810;4.442;2024-02-16T00:42:09;13.50;99.90
23609;DHT22;11982;50.810;4.442;2024-02-16T00:44:34;13.50;99.90
23609;DHT22;11982;50.810;4.442;2024-02-16T00:47:00;13.50;99.90
23609;DHT22;11982;50.810;4.442;2024-02-16T00:52:48;13.40;99.90
23609;DHT22;11982;50.810;4.442;2024-02-16T00:55:13;13.40;99.90
23609;DHT22;11982;50.810;4.442;2024-02-16T00:57:39;13.30;99.90
23609;DHT22;11982;50.810;4.442;2024-02-16T01:00:06;13.30;99.90
23609;DHT22;11982;50.810;4.442;2024-02-16T01:02:31;13.40;99.90
23609;DHT22;11982;50.810;4.442;2024-02-16T01:04:58;13.40;99.90
23609;DHT22;11982;50.810;4.442;2024-02-16T01:07:27;13.40;99.90
23609;DHT22;11982;50.810;4.442;2024-02-16T01:09:53;13.40;99.90
23609;DHT22;11982;50.810;4.442;2024-02-16T01:12:19;13.40;99.90
23609;DHT22;11982;50.810;4.442;2024-02-16T01:14:47;13.40;99.90
23609;DHT22;11982;50.810;4.442;2024-02-16T01:17:13;13.40;99.90
23609;DHT22;11982;50.810;4.442;2024-02-16T01:23:01;13.50;99.90
23609;DHT22;11982;50.810;4.442;2024-02-16T01:25:26;13.50;99.90
23609;DHT22;11982;50.810;4.442;2024-02-16T01:27:52;13.40;99.90
23609;DHT22;11982;50.810;4.442;2024-02-16T01:30:18;13.40;99.90
23609;DHT22;11982;50.810;4.442;2024-02-16T01:32:45;13.40;99.90
23609;DHT22;11982;50.810;4.442;2024-02-16T01:38:32;13.60;99.90
23609;DHT22;11982;50.810;4.442;2024-02-16T01:40:58;13.60;99.90
23609;DHT22;11982;50.810;4.442;2024-02-16T01:43:24;13.60;99.90
23609;DHT22;11982;50.810;4.442;2024-02-16T01:45:50;13.60;99.90
23609;DHT22;11982;50.810;4.442;2024-02-16T01:48:16;13.60;99.90
23609;DHT22;11982;50.810;4.442;2024-02-16T01:50:45;13.70;99.90
23609;DHT22;11982;50.810;4.442;2024-02-16T01:53:15;13.70;99.90
23609;DHT22;11982;50.810;4.442;2024-02-16T01:55:45;13.70;99.90
23609;DHT22;11982;50.810;4.442;2024-02-16T01:58:11;13.70;99.90
23609;DHT22;11982;50.810;4.442;2024-02-16T02:00:37;13.70;99.90
23609;DHT22;11982;50.810;4.442;2024-02-16T02:03:03;13.60;99.90
23609;DHT22;11982;50.810;4.442;2024-02-16T02:08:51;13.50;99.90
23609;DHT22;11982;50.810;4.442;2024-02-16T02:11:17;13.60;99.90
23609;DHT22;11982;50.810;4.442;2024-02-16T02:13:42;13.60;99.90
23609;DHT22;11982;50.810;4.442;2024-02-16T02:16:10;13.50;99.90
23609;DHT22;11982;50.810;4.442;2024-02-16T02:18:35;13.60;99.90
23609;DHT22;11982;50.810;4.442;2024-02-16T02:21:01;13.50;99.90
23609;DHT22;11982;50.810;4.442;2024-02-16T02:23:26;13.50;99.90
23609;DHT22;11982;50.810;4.442;2024-02-16T02:25:52;13.50;99.90
23609;DHT22;11982;50.810;4.442;2024-02-16T02:28:18;13.60;99.90
23609;DHT22;11982;50.810;4.442;2024-02-16T02:30:45;13.60;99.90
23609;DHT22;11982;50.810;4.442;2024-02-16T02:33:11;13.60;99.90
23609;DHT22;11982;50.810;4.442;2024-02-16T02:39:00;13.60;99.90
23609;DHT22;11982;50.810;4.442;2024-02-16T02:41:25;13.50;99.90
23609;DHT22;11982;50.810;4.442;2024-02-16T02:43:52;13.50;99.90
23609;DHT22;11982;50.810;4.442;2024-02-16T02:46:18;13.50;99.90
23609;DHT22;11982;50.810;4.442;2024-02-16T02:48:44;13.50;99.90
23609;DHT22;11982;50.810;4.442;2024-02-16T02:51:10;13.50;99.90
23609;DHT22;11982;50.810;4.442;2024-02-16T02:53:36;13.60;99.90
23609;DHT22;11982;50.810;4.442;2024-02-16T02:56:02;13.60;99.90
23609;DHT22;11982;50.810;4.442;2024-02-16T02:58:28;13.60;99.90
23609;DHT22;11982;50.810;4.442;2024-02-16T03:00:54;13.50;99.90
23609;DHT22;11982;50.810;4.442;2024-02-16T03:03:20;13.60;99.90
23609;DHT22;11982;50.810;4.442;2024-02-16T03:09:08;13.60;99.90
23609;DHT22;11982;50.810;4.442;2024-02-16T03:11:36;13.60;99.90
23609;DHT22;11982;50.810;4.442;2024-02-16T03:14:01;13.60;99.90
23609;DHT22;11982;50.810;4.442;2024-02-16T03:16:27;13.60;99.90
23609;DHT22;11982;50.810;4.442;2024-02-16T03:18:53;13.60;99.90
23609;DHT22;11982;50.810;4.442;2024-02-16T03:24:42;13.60;99.90
23609;DHT22;11982;50.810;4.442;2024-02-16T03:27:07;13.50;99.90
23609;DHT22;11982;50.810;4.442;2024-02-16T03:29:33;13.50;99.90
23609;DHT22;11982;50.810;4.442;2024-02-16T03:31:59;13.40;99.90
23609;DHT22;11982;50.810;4.442;2024-02-16T03:34:24;13.50;99.90
23609;DHT22;11982;50.810;4.442;2024-02-16T03:36:50;13.50;99.90
23609;DHT22;11982;50.810;4.442;2024-02-16T03:39:16;13.50;99.90
23609;DHT22;11982;50.810;4.442;2024-02-16T03:41:45;13.50;99.90
23609;DHT22;11982;50.810;4.442;2024-02-16T03:44:14;13.50;99.90
23609;DHT22;11982;50.810;4.442;2024-02-16T03:46:41;13.50;99.90
23609;DHT22;11982;50.810;4.442;2024-02-16T03:49:07;13.40;99.90
23609;DHT22;11982;50.810;4.442;2024-02-16T03:54:55;13.40;99.90
23609;DHT22;11982;50.810;4.442;2024-02-16T03:57:20;13.50;99.90
23609;DHT22;11982;50.810;4.442;2024-02-16T03:59:46;13.50;99.90
23609;DHT22;11982;50.810;4.442;2024-02-16T04:02:12;13.50;99.90
23609;DHT22;11982;50.810;4.442;2024-02-16T04:04:41;13.60;99.90
23609;DHT22;11982;50.810;4.442;2024-02-16T04:07:07;13.70;99.90
23609;DHT22;11982;50.810;4.442;2024-02-16T04:09:33;13.70;99.90
23609;DHT22;11982;50.810;4.442;2024-02-16T04:12:00;13.70;99.90
23609;DHT22;11982;50.810;4.442;2024-02-16T04:14:26;13.80;99.90
23609;DHT22;11982;50.810;4.442;2024-02-16T04:16:52;13.80;99.90
23609;DHT22;11982;50.810;4.442;2024-02-16T04:19:17;13.80;99.90
23609;DHT22;11982;50.810;4.442;2024-02-16T04:25:05;13.70;99.90
23609;DHT22;11982;50.810;4.442;2024-02-16T04:27:31;13.70;99.90
23609;DHT22;11982;50.810;4.442;2024-02-16T04:29:56;13.70;99.90
23609;DHT22;11982;50.810;4.442;2024-02-16T04:32:23;13.70;99.90
23609;DHT22;11982;50.810;4.442;2024-02-16T04:34:51;13.60;99.90
23609;DHT22;11982;50.810;4.442;2024-02-16T04:40:39;13.60;99.90
23609;DHT22;11982;50.810;4.442;2024-02-16T04:43:04;13.60;99.90
23609;DHT22;11982;50.810;4.442;2024-02-16T04:45:30;13.70;99.90
23609;DHT22;11982;50.810;4.442;2024-02-16T04:47:56;13.80;99.90
23609;DHT22;11982;50.810;4.442;2024-02-16T04:50:21;13.80;99.90
23609;DHT22;11982;50.810;4.442;2024-02-16T04:52:47;13.80;99.90
23609;DHT22;11982;50.810;4.442;2024-02-16T04:55:13;13.80;99.90
23609;DHT22;11982;50.810;4.442;2024-02-16T04:57:38;13.70;99.90
23609;DHT22;11982;50.810;4.442;2024-02-16T05:00:04;13.80;99.90
23609;DHT22;11982;50.810;4.442;2024-02-16T05:02:30;13.80;99.90
23609;DHT22;11982;50.810;4.442;2024-02-16T05:04:56;13.80;99.90
23609;DHT22;11982;50.810;4.442;2024-02-16T05:10:43;13.80;99.90
23609;DHT22;11982;50.810;4.442;2024-02-16T05:13:08;13.70;99.90
23609;DHT22;11982;50.810;4.442;2024-02-16T05:15:35;13.80;99.90
23609;DHT22;11982;50.810;4.442;2024-02-16T05:18:00;13.80;99.90
23609;DHT22;11982;50.810;4.442;2024-02-16T05:20:26;13.80;99.90
23609;DHT22;11982;50.810;4.442;2024-02-16T05:22:51;13.80;99.90
23609;DHT22;11982;50.810;4.442;2024-02-16T05:25:18;13.80;99.90
23609;DHT22;11982;50.810;4.442;2024-02-16T05:27:45;13.90;99.90
23609;DHT22;11982;50.810;4.442;2024-02-16T05:30:12;13.90;99.90
23609;DHT22;11982;50.810;4.442;2024-02-16T05:32:40;13.90;99.90
23609;DHT22;11982;50.810;4.442;2024-02-16T05:35:06;13.90;99.90
23609;DHT22;11982;50.810;4.442;2024-02-16T05:41:01;14.00;99.90
23609;DHT22;11982;50.810;4.442;2024-02-16T05:43:27;14.00;99.90
23609;DHT22;11982;50.810;4.442;2024-02-16T05:45:53;14.00;99.90
23609;DHT22;11982;50.810;4.442;2024-02-16T05:48:18;14.00;99.90
23609;DHT22;11982;50.810;4.442;2024-02-16T05:50:45;13.90;99.90
23609;DHT22;11982;50.810;4.442;2024-02-16T05:53:10;14.00;99.90
23609;DHT22;11982;50.810;4.442;2024-02-16T05:55:37;14.00;99.90
23609;DHT22;11982;50.810;4.442;2024-02-16T05:58:02;14.00;99.90
23609;DHT22;11982;50.810;4.442;2024-02-16T06:00:33;14.00;99.90
23609;DHT22;11982;50.810;4.442;2024-02-16T06:02:58;14.10;99.90
23609;DHT22;11982;50.810;4.442;2024-02-16T06:05:24;14.10;99.90
23609;DHT22;11982;50.810;4.442;2024-02-16T06:11:12;14.00;99.90
23609;DHT22;11982;50.810;4.442;2024-02-16T06:13:37;13.80;99.90
23609;DHT22;11982;50.810;4.442;2024-02-16T06:16:05;13.70;99.90
23609;DHT22;11982;50.810;4.442;2024-02-16T06:18:34;13.70;99.90
23609;DHT22;11982;50.810;4.442;2024-02-16T06:21:00;13.60;99.90
23609;DHT22;11982;50.810;4.442;2024-02-16T06:26:48;13.40;99.90
23609;DHT22;11982;50.810;4.442;2024-02-16T06:29:14;13.30;99.90
23609;DHT22;11982;50.810;4.442;2024-02-16T06:31:39;13.30;99.90
23609;DHT22;11982;50.810;4.442;2024-02-16T06:34:05;13.30;99.90
23609;DHT22;11982;50.810;4.442;2024-02-16T06:36:31;13.30;99.90
23609;DHT22;11982;50.810;4.442;2024-02-16T06:38:56;13.30;99.90
23609;DHT22;11982;50.810;4.442;2024-02-16T06:41:22;13.30;99.90
23609;DHT22;11982;50.810;4.442;2024-02-16T06:43:47;13.40;99.90
23609;DHT22;11982;50.810;4.442;2024-02-16T06:46:13;13.40;99.90
23609;DHT22;11982;50.810;4.442;2024-02-16T06:48:39;13.40;99.90
23609;DHT22;11982;50.810;4.442;2024-02-16T06:51:04;13.40;99.90
23609;DHT22;11982;50.810;4.442;2024-02-16T06:56:52;13.50;99.90
23609;DHT22;11982;50.810;4.442;2024-02-16T06:59:18;13.50;99.90
23609;DHT22;11982;50.810;4.442;2024-02-16T07:01:44;13.60;99.90
23609;DHT22;11982;50.810;4.442;2024-02-16T07:04:09;13.60;99.90
23609;DHT22;11982;50.810;4.442;2024-02-16T07:06:36;13.60;99.90
23609;DHT22;11982;50.810;4.442;2024-02-16T07:12:42;13.70;99.90
23609;DHT22;11982;50.810;4.442;2024-02-16T07:15:08;13.70;99.90
23609;DHT22;11982;50.810;4.442;2024-02-16T07:17:35;13.70;99.90
23609;DHT22;11982;50.810;4.442;2024-02-16T07:20:01;13.70;99.90
23609;DHT22;11982;50.810;4.442;2024-02-16T07:22:30;13.70;99.90
23609;DHT22;11982;50.810;4.442;2024-02-16T07:24:56;13.70;99.90
23609;DHT22;11982;50.810;4.442;2024-02-16T07:27:21;13.80;99.90
23609;DHT22;11982;50.810;4.442;2024-02-16T07:29:47;13.80;99.90
23609;DHT22;11982;50.810;4.442;2024-02-16T07:32:13;13.80;99.90
23609;DHT22;11982;50.810;4.442;2024-02-16T07:34:38;13.80;99.90
23609;DHT22;11982;50.810;4.442;2024-02-16T07:37:04;13.80;99.90
23609;DHT22;11982;50.810;4.442;2024-02-16T07:39:29;13.70;99.90
23609;DHT22;11982;50.810;4.442;2024-02-16T07:41:56;13.70;99.90
23609;DHT22;11982;50.810;4.442;2024-02-16T07:44:21;13.70;99.90
23609;DHT22;11982;50.810;4.442;2024-02-16T07:46:47;13.70;99.90
23609;DHT22;11982;50.810;4.442;2024-02-16T07:49:15;13.70;99.90
23609;DHT22;11982;50.810;4.442;2024-02-16T07:51:40;13.70;99.90
23609;DHT22;11982;50.810;4.442;2024-02-16T07:57:28;13.80;99.90
23609;DHT22;11982;50.810;4.442;2024-02-16T07:59:54;13.80;99.90
23609;DHT22;11982;50.810;4.442;2024-02-16T08:02:22;13.80;99.90
23609;DHT22;11982;50.810;4.442;2024-02-16T08:04:51;13.80;99.90
23609;DHT22;11982;50.810;4.442;2024-02-16T08:07:17;13.90;99.90
23609;DHT22;11982;50.810;4.442;2024-02-16T08:13:04;13.90;99.90
23609;DHT22;11982;50.810;4.442;2024-02-16T08:15:30;13.90;99.90
23609;DHT22;11982;50.810;4.442;2024-02-16T08:17:56;13.90;99.90
23609;DHT22;11982;50.810;4.442;2024-02-16T08:20:22;13.80;99.90
23609;DHT22;11982;50.810;4.442;2024-02-16T08:22:48;13.90;99.90
23609;DHT22;11982;50.810;4.442;2024-02-16T08:25:13;13.90;99.90
23609;DHT22;11982;50.810;4.442;2024-02-16T08:27:39;13.80;99.90
23609;DHT22;11982;50.810;4.442;2024-02-16T08:30:06;13.70;99.90
23609;DHT22;11982;50.810;4.442;2024-02-16T08:32:31;13.50;99.90
23609;DHT22;11982;50.810;4.442;2024-02-16T08:34:57;13.40;99.90
23609;DHT22;11982;50.810;4.442;2024-02-16T08:37:24;13.30;99.90
23609;DHT22;11982;50.810;4.442;2024-02-16T08:43:11;13.30;99.90
23609;DHT22;11982;50.810;4.442;2024-02-16T08:45:37;13.30;99.90
23609;DHT22;11982;50.810;4.442;2024-02-16T08:48:03;13.40;99.90
23609;DHT22;11982;50.810;4.442;2024-02-16T08:50:29;13.50;99.90
23609;DHT22;11982;50.810;4.442;2024-02-16T08:52:55;13.50;99.90
23609;DHT22;11982;50.810;4.442;2024-02-16T08:58:42;13.60;99.90
23609;DHT22;11982;50.810;4.442;2024-02-16T09:01:08;13.70;99.90
23609;DHT22;11982;50.810;4.442;2024-02-16T09:03:33;13.70;99.90
23609;DHT22;11982;50.810;4.442;2024-02-16T09:06:04;13.70;99.90
23609;DHT22;11982;50.810;4.442;2024-02-16T09:08:30;13.80;99.90
23609;DHT22;11982;50.810;4.442;2024-02-16T09:11:00;13.90;99.90
23609;DHT22;11982;50.810;4.442;2024-02-16T09:13:33;13.80;99.90
23609;DHT22;11982;50.810;4.442;2024-02-16T09:16:00;13.90;99.90
23609;DHT22;11982;50.810;4.442;2024-02-16T09:18:26;14.00;99.90
23609;DHT22;11982;50.810;4.442;2024-02-16T09:20:51;14.10;99.90
23609;DHT22;11982;50.810;4.442;2024-02-16T09:29:42;13.90;99.90
23609;DHT22;11982;50.810;4.442;2024-02-16T09:32:08;13.80;99.90
23609;DHT22;11982;50.810;4.442;2024-02-16T09:34:34;13.80;99.90
23609;DHT22;11982;50.810;4.442;2024-02-16T09:37:00;13.80;99.90
23609;DHT22;11982;50.810;4.442;2024-02-16T09:39:26;13.80;99.90
23609;DHT22;11982;50.810;4.442;2024-02-16T09:41:54;13.70;99.90
23609;DHT22;11982;50.810;4.442;2024-02-16T09:44:21;13.70;99.90
23609;DHT22;11982;50.810;4.442;2024-02-16T09:46:47;13.70;99.90
23609;DHT22;11982;50.810;4.442;2024-02-16T09:49:13;13.80;99.90
23609;DHT22;11982;50.810;4.442;2024-02-16T09:51:39;13.80;99.90
23609;DHT22;11982;50.810;4.442;2024-02-16T09:54:04;13.80;99.90
23609;DHT22;11982;50.810;4.442;2024-02-16T09:56:30;13.80;99.90
23609;DHT22;11982;50.810;4.442;2024-02-16T09:58:56;13.80;99.90
23609;DHT22;11982;50.810;4.442;2024-02-16T10:01:23;13.80;99.90
23609;DHT22;11982;50.810;4.442;2024-02-16T10:03:49;13.90;99.90
23609;DHT22;11982;50.810;4.442;2024-02-16T10:06:16;13.90;99.90
23609;DHT22;11982;50.810;4.442;2024-02-16T10:15:26;14.00;99.90
23609;DHT22;11982;50.810;4.442;2024-02-16T10:18:18;13.90;99.90
23609;DHT22;11982;50.810;4.442;2024-02-16T10:20:45;14.00;99.90
23609;DHT22;11982;50.810;4.442;2024-02-16T10:23:12;14.00;99.90
23609;DHT22;11982;50.810;4.442;2024-02-16T10:25:40;14.20;99.90
23609;DHT22;11982;50.810;4.442;2024-02-16T10:28:10;14.30;99.90
23609;DHT22;11982;50.810;4.442;2024-02-16T10:30:41;14.30;99.90
23609;DHT22;11982;50.810;4.442;2024-02-16T10:33:08;14.30;99.90
23609;DHT22;11982;50.810;4.442;2024-02-16T10:35:35;14.40;99.90
23609;DHT22;11982;50.810;4.442;2024-02-16T10:38:03;14.30;99.90
23609;DHT22;11982;50.810;4.442;2024-02-16T10:40:40;14.30;99.90
23609;DHT22;11982;50.810;4.442;2024-02-16T10:43:07;14.20;99.90
23609;DHT22;11982;50.810;4.442;2024-02-16T10:45:37;14.20;99.90
23609;DHT22;11982;50.810;4.442;2024-02-16T10:48:03;14.00;99.90
23609;DHT22;11982;50.810;4.442;2024-02-16T10:50:31;13.90;99.90
23609;DHT22;11982;50.810;4.442;2024-02-16T10:52:58;14.00;99.90
23609;DHT22;11982;50.810;4.442;2024-02-16T10:55:26;13.90;99.90
23609;DHT22;11982;50.810;4.442;2024-02-16T10:57:52;13.80;99.90
23609;DHT22;11982;50.810;4.442;2024-02-16T11:00:21;13.60;99.90
23609;DHT22;11982;50.810;4.442;2024-02-16T11:02:56;13.50;99.90
23609;DHT22;11982;50.810;4.442;2024-02-16T11:05:39;13.40;99.90
23609;DHT22;11982;50.810;4.442;2024-02-16T11:08:13;13.40;99.90
23609;DHT22;11982;50.810;4.442;2024-02-16T11:10:39;13.40;99.90
23609;DHT22;11982;50.810;4.442;2024-02-16T11:13:04;13.30;99.90
23609;DHT22;11982;50.810;4.442;2024-02-16T11:15:31;13.30;99.90
23609;DHT22;11982;50.810;4.442;2024-02-16T11:18:00;13.30;99.90
23609;DHT22;11982;50.810;4.442;2024-02-16T11:20:26;13.20;99.90
23609;DHT22;11982;50.810;4.442;2024-02-16T11:22:52;13.30;99.90
23609;DHT22;11982;50.810;4.442;2024-02-16T11:25:19;13.20;99.90
23609;DHT22;11982;50.810;4.442;2024-02-16T11:27:55;13.20;99.90
23609;DHT22;11982;50.810;4.442;2024-02-16T11:30:21;13.20;99.90
23609;DHT22;11982;50.810;4.442;2024-02-16T11:32:47;13.10;99.90
23609;DHT22;11982;50.810;4.442;2024-02-16T11:35:12;13.10;99.90
23609;DHT22;11982;50.810;4.442;2024-02-16T11:37:38;13.10;99.90
23609;DHT22;11982;50.810;4.442;2024-02-16T11:40:05;13.10;99.90
23609;DHT22;11982;50.810;4.442;2024-02-16T11:42:33;13.00;99.90
23609;DHT22;11982;50.810;4.442;2024-02-16T11:45:00;13.10;99.90
23609;DHT22;11982;50.810;4.442;2024-02-16T11:47:26;13.00;99.90
23609;DHT22;11982;50.810;4.442;2024-02-16T11:50:09;13.00;99.90
23609;DHT22;11982;50.810;4.442;2024-02-16T11:52:38;13.00;99.90
23609;DHT22;11982;50.810;4.442;2024-02-16T11:55:07;13.00;99.90
23609;DHT22;11982;50.810;4.442;2024-02-16T12:00:55;13.10;99.90
23609;DHT22;11982;50.810;4.442;2024-02-16T12:03:25;13.10;99.90
23609;DHT22;11982;50.810;4.442;2024-02-16T12:05:57;13.10;99.90
23609;DHT22;11982;50.810;4.442;2024-02-16T12:08:23;13.10;99.90
23609;DHT22;11982;50.810;4.442;2024-02-16T12:10:51;13.20;99.90
23609;DHT22;11982;50.810;4.442;2024-02-16T12:13:18;13.10;99.90
23609;DHT22;11982;50.810;4.442;2024-02-16T12:15:45;13.10;99.90
23609;DHT22;11982;50.810;4.442;2024-02-16T12:18:18;13.10;99.90
23609;DHT22;11982;50.810;4.442;2024-02-16T12:20:44;12.90;99.90
23609;DHT22;11982;50.810;4.442;2024-02-16T12:23:14;13.00;99.90
23609;DHT22;11982;50.810;4.442;2024-02-16T12:25:39;12.90;99.90
23609;DHT22;11982;50.810;4.442;2024-02-16T12:28:05;12.90;99.90
23609;DHT22;11982;50.810;4.442;2024-02-16T12:30:31;12.80;99.90
23609;DHT22;11982;50.810;4.442;2024-02-16T12:32:57;12.80;99.90
23609;DHT22;11982;50.810;4.442;2024-02-16T12:35:22;12.90;99.90
23609;DHT22;11982;50.810;4.442;2024-02-16T12:37:48;12.80;99.90
23609;DHT22;11982;50.810;4.442;2024-02-16T12:40:13;12.70;99.90
23609;DHT22;11982;50.810;4.442;2024-02-16T12:46:40;12.70;99.90
23609;DHT22;11982;50.810;4.442;2024-02-16T12:49:07;12.60;99.90
23609;DHT22;11982;50.810;4.442;2024-02-16T12:51:33;12.60;99.90
23609;DHT22;11982;50.810;4.442;2024-02-16T12:53:58;12.70;99.90
23609;DHT22;11982;50.810;4.442;2024-02-16T12:56:26;12.60;99.90
23609;DHT22;11982;50.810;4.442;2024-02-16T12:58:51;12.60;99.90
23609;DHT22;11982;50.810;4.442;2024-02-16T13:01:18;12.70;99.90
23609;DHT22;11982;50.810;4.442;2024-02-16T13:03:44;12.70;99.90
23609;DHT22;11982;50.810;4.442;2024-02-16T13:06:09;12.60;99.90
23609;DHT22;11982;50.810;4.442;2024-02-16T13:08:36;12.50;99.90
23609;DHT22;11982;50.810;4.442;2024-02-16T13:11:03;12.40;99.90
23609;DHT22;11982;50.810;4.442;2024-02-16T13:16:50;12.40;99.90
23609;DHT22;11982;50.810;4.442;2024-02-16T13:19:16;12.40;99.90
23609;DHT22;11982;50.810;4.442;2024-02-16T13:21:43;12.40;99.90
23609;DHT22;11982;50.810;4.442;2024-02-16T13:24:09;12.40;99.90
23609;DHT22;11982;50.810;4.442;2024-02-16T13:26:35;12.30;99.90
23609;DHT22;11982;50.810;4.442;2024-02-16T13:29:01;12.40;99.90
23609;DHT22;11982;50.810;4.442;2024-02-16T13:31:26;12.50;99.90
23609;DHT22;11982;50.810;4.442;2024-02-16T13:33:53;12.70;99.90
23609;DHT22;11982;50.810;4.442;2024-02-16T13:36:19;12.90;99.90
23609;DHT22;11982;50.810;4.442;2024-02-16T13:38:45;12.80;99.90
23609;DHT22;11982;50.810;4.442;2024-02-16T13:41:10;12.90;99.90
23609;DHT22;11982;50.810;4.442;2024-02-16T13:46:58;12.90;99.90
23609;DHT22;11982;50.810;4.442;2024-02-16T13:49:23;13.00;99.90
23609;DHT22;11982;50.810;4.442;2024-02-16T13:51:49;13.10;99.90
23609;DHT22;11982;50.810;4.442;2024-02-16T13:54:15;13.10;99.90
23609;DHT22;11982;50.810;4.442;2024-02-16T13:56:41;13.30;99.90
23609;DHT22;11982;50.810;4.442;2024-02-16T13:59:06;13.30;99.90
23609;DHT22;11982;50.810;4.442;2024-02-16T14:01:33;13.40;99.90
23609;DHT22;11982;50.810;4.442;2024-02-16T14:04:00;13.40;99.90
23609;DHT22;11982;50.810;4.442;2024-02-16T14:06:26;13.40;99.90
23609;DHT22;11982;50.810;4.442;2024-02-16T14:08:51;13.40;99.90
23609;DHT22;11982;50.810;4.442;2024-02-16T14:11:19;13.40;99.90
23609;DHT22;11982;50.810;4.442;2024-02-16T14:17:06;13.50;99.90
23609;DHT22;11982;50.810;4.442;2024-02-16T14:19:32;13.50;99.90
23609;DHT22;11982;50.810;4.442;2024-02-16T14:22:03;13.50;99.90
23609;DHT22;11982;50.810;4.442;2024-02-16T14:24:29;13.50;99.90
23609;DHT22;11982;50.810;4.442;2024-02-16T14:26:55;13.60;99.90
23609;DHT22;11982;50.810;4.442;2024-02-16T14:29:21;13.60;99.90
23609;DHT22;11982;50.810;4.442;2024-02-16T14:31:46;13.60;99.90
23609;DHT22;11982;50.810;4.442;2024-02-16T14:34:14;13.60;99.90
23609;DHT22;11982;50.810;4.442;2024-02-16T14:36:40;13.70;99.90
23609;DHT22;11982;50.810;4.442;2024-02-16T14:39:05;13.70;99.90
23609;DHT22;11982;50.810;4.442;2024-02-16T14:41:31;13.70;99.90
23609;DHT22;11982;50.810;4.442;2024-02-16T14:47:19;13.50;99.90
23609;DHT22;11982;50.810;4.442;2024-02-16T14:49:44;13.40;99.90
23609;DHT22;11982;50.810;4.442;2024-02-16T14:52:10;13.50;99.90
23609;DHT22;11982;50.810;4.442;2024-02-16T14:54:36;13.50;99.90
23609;DHT22;11982;50.810;4.442;2024-02-16T14:57:02;13.60;99.90
23609;DHT22;11982;50.810;4.442;2024-02-16T15:02:50;13.80;99.90
23609;DHT22;11982;50.810;4.442;2024-02-16T15:05:16;13.80;99.90
23609;DHT22;11982;50.810;4.442;2024-02-16T15:07:41;13.80;99.90
23609;DHT22;11982;50.810;4.442;2024-02-16T15:10:07;13.90;99.90
23609;DHT22;11982;50.810;4.442;2024-02-16T15:12:35;13.80;99.90
23609;DHT22;11982;50.810;4.442;2024-02-16T15:15:01;13.70;99.90
23609;DHT22;11982;50.810;4.442;2024-02-16T15:17:27;13.80;99.90
23609;DHT22;11982;50.810;4.442;2024-02-16T15:19:53;13.80;99.90
23609;DHT22;11982;50.810;4.442;2024-02-16T15:22:18;13.80;99.90
23609;DHT22;11982;50.810;4.442;2024-02-16T15:24:44;13.80;99.90
23609;DHT22;11982;50.810;4.442;2024-02-16T15:27:10;13.90;99.90
23609;DHT22;11982;50.810;4.442;2024-02-16T15:32:58;13.80;99.90
23609;DHT22;11982;50.810;4.442;2024-02-16T15:35:24;13.70;99.90
23609;DHT22;11982;50.810;4.442;2024-02-16T15:37:50;13.70;99.90
23609;DHT22;11982;50.810;4.442;2024-02-16T15:40:15;13.50;99.90
23609;DHT22;11982;50.810;4.442;2024-02-16T15:42:41;13.50;99.90
23609;DHT22;11982;50.810;4.442;2024-02-16T15:48:29;13.30;99.90
23609;DHT22;11982;50.810;4.442;2024-02-16T15:50:57;13.40;99.90
23609;DHT22;11982;50.810;4.442;2024-02-16T15:53:25;13.50;99.90
23609;DHT22;11982;50.810;4.442;2024-02-16T15:55:51;13.40;99.90
23609;DHT22;11982;50.810;4.442;2024-02-16T15:58:17;13.40;99.90
23609;DHT22;11982;50.810;4.442;2024-02-16T16:00:42;13.40;99.90
23609;DHT22;11982;50.810;4.442;2024-02-16T16:03:08;13.50;99.90
23609;DHT22;11982;50.810;4.442;2024-02-16T16:05:35;13.40;99.90
23609;DHT22;11982;50.810;4.442;2024-02-16T16:08:01;13.50;99.90
23609;DHT22;11982;50.810;4.442;2024-02-16T16:10:27;13.50;99.90
23609;DHT22;11982;50.810;4.442;2024-02-16T16:12:53;13.50;99.90
23609;DHT22;11982;50.810;4.442;2024-02-16T16:18:40;13.30;99.90
23609;DHT22;11982;50.810;4.442;2024-02-16T16:21:06;13.30;99.90
23609;DHT22;11982;50.810;4.442;2024-02-16T16:23:31;13.20;99.90
23609;DHT22;11982;50.810;4.442;2024-02-16T16:26:01;13.20;99.90
23609;DHT22;11982;50.810;4.442;2024-02-16T16:28:26;13.10;99.90
23609;DHT22;11982;50.810;4.442;2024-02-16T16:30:52;13.20;99.90
23609;DHT22;11982;50.810;4.442;2024-02-16T16:33:18;13.10;99.90
23609;DHT22;11982;50.810;4.442;2024-02-16T16:35:43;13.00;99.90
23609;DHT22;11982;50.810;4.442;2024-02-16T16:38:09;13.00;99.90
23609;DHT22;11982;50.810;4.442;2024-02-16T16:40:38;13.10;99.90
23609;DHT22;11982;50.810;4.442;2024-02-16T16:43:04;13.10;99.90
23609;DHT22;11982;50.810;4.442;2024-02-16T16:48:51;13.00;99.90
23609;DHT22;11982;50.810;4.442;2024-02-16T16:51:18;13.00;99.90
23609;DHT22;11982;50.810;4.442;2024-02-16T16:53:44;13.10;99.90
23609;DHT22;11982;50.810;4.442;2024-02-16T16:56:09;13.00;99.90
23609;DHT22;11982;50.810;4.442;2024-02-16T16:58:36;12.90;99.90
23609;DHT22;11982;50.810;4.442;2024-02-16T17:04:23;12.90;99.90
23609;DHT22;11982;50.810;4.442;2024-02-16T17:06:49;12.80;99.90
23609;DHT22;11982;50.810;4.442;2024-02-16T17:09:15;12.80;99.90
23609;DHT22;11982;50.810;4.442;2024-02-16T17:11:42;12.70;99.90
23609;DHT22;11982;50.810;4.442;2024-02-16T17:14:08;12.70;99.90
23609;DHT22;11982;50.810;4.442;2024-02-16T17:16:34;12.70;99.90
23609;DHT22;11982;50.810;4.442;2024-02-16T17:19:00;12.70;99.90
23609;DHT22;11982;50.810;4.442;2024-02-16T17:21:25;12.60;99.90
23609;DHT22;11982;50.810;4.442;2024-02-16T17:23:51;12.60;99.90
23609;DHT22;11982;50.810;4.442;2024-02-16T17:26:17;12.50;99.90
23609;DHT22;11982;50.810;4.442;2024-02-16T17:28:42;12.60;99.90
23609;DHT22;11982;50.810;4.442;2024-02-16T17:34:30;12.60;99.90
23609;DHT22;11982;50.810;4.442;2024-02-16T17:36:56;12.80;99.90